Kuin — EA5984 — position and weather

sailwx.info

Track history (hours):
 
Tides and Currents Weather Stations Pressure Air Temp Water Temp Dewpoint Dewpoint Depression Visibility Wind Speed Wind Dir Waves Ship Positions

Kuin

Last reported at 2017-Dec-03 21:56 UTC. Time now 2017-Dec-11 02:29 UTC.
Position N 43°20' W 003°01'.

Length 12 m.

Type: Sailing vessel. MMSI: 224120260.

Date/timePositionNaut miles runAvg speedWind from/ knotsBaromVisibWave heightAir tempDewpointWater temp
2017-Dec-03 21:56N 43°20' W 003°01'2 3.5
2017-Dec-03 21:29N 43°22' W 003°02'2 5.0
2017-Dec-03 20:59N 43°24' W 003°01'8 4.7
2017-Dec-03 19:20N 43°27' W 002°51'5 5.0
2017-Dec-03 18:20N 43°28' W 002°45'2 4.9
2017-Dec-03 18:00N 43°28' W 002°42'2 4.8
2017-Dec-03 17:30N 43°26' W 002°40'3 5.3
2017-Dec-03 17:00N 43°25' W 002°36'3 6.1
2017-Dec-03 16:30N 43°24' W 002°33'2 1.2
2017-Dec-03 14:31N 43°23' W 002°30'0 3.9
2017-Dec-03 14:30N 43°23' W 002°30'1 1.8
2017-Dec-03 14:00N 43°23' W 002°29'1 1.4
2017-Dec-03 13:30N 43°24' W 002°29'1 2.4
2017-Dec-03 13:00N 43°23' W 002°30'0 0.1
2017-Dec-03 09:20N 43°22' W 002°29'1 1.9
2017-Dec-03 09:00N 43°23' W 002°30'1 0.1
2017-Dec-02 22:13N 43°22' W 002°30'1 4.6
2017-Dec-02 22:00N 43°23' W 002°31'2 4.4
2017-Dec-02 21:30N 43°24' W 002°34'3 5.5
2017-Dec-02 21:00N 43°25' W 002°37'3 6.2
2017-Dec-02 20:30N 43°27' W 002°41'6 5.9
2017-Dec-02 19:30N 43°27' W 002°49'9 4.1
2017-Dec-02 17:25N 43°25' W 003°00'2 4.6
2017-Dec-02 16:57N 43°23' W 003°02'3 5.2
2017-Dec-02 16:27N 43°21' W 003°02'  
2017-Nov-27 17:33N 43°20' W 003°01'0 2.3
2017-Nov-27 17:30N 43°20' W 003°01'0 0.7
2017-Nov-27 17:00N 43°20' W 003°01'0 0.7
2017-Nov-27 16:28N 43°20' W 003°01'0 0.1
2017-Nov-27 16:00N 43°20' W 003°01'0 0.2
2017-Nov-27 15:27N 43°20' W 003°01'0 0.0
2017-Nov-27 14:50N 43°20' W 003°01'0 0.0
2017-Nov-27 13:08N 43°20' W 003°01'0 0.0
2017-Nov-27 12:59N 43°20' W 003°01'1 1.3
2017-Nov-27 12:30N 43°21' W 003°02'1 0.0
2017-Nov-26 17:55N 43°20' W 003°01'2 3.2
2017-Nov-26 17:26N 43°21' W 003°02'2 4.4
2017-Nov-26 17:00N 43°23' W 003°02'2 4.8
2017-Nov-26 16:30N 43°25' W 002°59'1 1.3
2017-Nov-26 16:00N 43°25' W 003°00'2 3.2
2017-Nov-26 15:30N 43°24' W 003°01'2 3.9
2017-Nov-26 14:53N 43°22' W 003°02'2 4.3
2017-Nov-26 14:30N 43°20' W 003°01'0 0.3
2017-Nov-26 13:59N 43°20' W 003°01'0 0.0
2017-Nov-26 13:29N 43°20' W 003°01'0 0.0
2017-Nov-26 12:44N 43°20' W 003°01'1 2.7
2017-Nov-26 12:30N 43°20' W 003°02'2 4.5
2017-Nov-26 12:00N 43°23' W 003°03'1 2.8
2017-Nov-26 11:30N 43°24' W 003°02'0 0.1
2017-Nov-26 11:00N 43°24' W 003°02'2 3.1
2017-Nov-26 10:30N 43°22' W 003°03'3 5.2
2017-Nov-26 10:00N 43°20' W 003°02'0 0.0
2017-Nov-25 18:09N 43°20' W 003°01'0 0.5
2017-Nov-25 17:57N 43°20' W 003°01'2 3.7
2017-Nov-25 17:30N 43°21' W 003°03'2 5.0
2017-Nov-25 17:00N 43°24' W 003°04'2 3.2
2017-Nov-25 16:30N 43°24' W 003°02'2 4.2
2017-Nov-25 16:00N 43°23' W 003°05'1 1.8
2017-Nov-25 15:30N 43°22' W 003°04'1 2.8
2017-Nov-25 15:00N 43°21' W 003°02'1 2.4
2017-Nov-25 14:30N 43°20' W 003°01'0 0.3
2017-Nov-25 13:56N 43°20' W 003°01'0 0.0
2017-Nov-25 13:26N 43°20' W 003°01'0 0.0
2017-Nov-25 12:56N 43°20' W 003°01'2 2.1
2017-Nov-25 12:06N 43°22' W 003°02'0 2.7
2017-Nov-25 12:00N 43°21' W 003°02'1 0.1
2017-Nov-24 10:25N 43°20' W 003°01'0 0.6
2017-Nov-24 10:00N 43°20' W 003°01'  
Track history (hours):
 
Tides and Currents Weather Stations Pressure Air Temp Water Temp Dewpoint Dewpoint Depression Visibility Wind Speed Wind Dir Waves Ship Positions

Kuin

Last reported at 2017-Dec-03 21:56 UTC. Time now 2017-Dec-11 02:29 UTC.
Position N 43°20' W 003°01'.

Length 12 m.

Type: Sailing vessel. MMSI: 224120260.

Date/timePositionNaut miles runAvg speedWind from/ knotsBaromVisibWave heightAir tempDewpointWater temp
2017-Dec-03 21:56N 43°20' W 003°01'2 3.5
2017-Dec-03 21:29N 43°22' W 003°02'2 5.0
2017-Dec-03 20:59N 43°24' W 003°01'8 4.7
2017-Dec-03 19:20N 43°27' W 002°51'5 5.0
2017-Dec-03 18:20N 43°28' W 002°45'2 4.9
2017-Dec-03 18:00N 43°28' W 002°42'2 4.8
2017-Dec-03 17:30N 43°26' W 002°40'3 5.3
2017-Dec-03 17:00N 43°25' W 002°36'3 6.1
2017-Dec-03 16:30N 43°24' W 002°33'2 1.2
2017-Dec-03 14:31N 43°23' W 002°30'0 3.9
2017-Dec-03 14:30N 43°23' W 002°30'1 1.8
2017-Dec-03 14:00N 43°23' W 002°29'1 1.4
2017-Dec-03 13:30N 43°24' W 002°29'1 2.4
2017-Dec-03 13:00N 43°23' W 002°30'0 0.1
2017-Dec-03 09:20N 43°22' W 002°29'1 1.9
2017-Dec-03 09:00N 43°23' W 002°30'1 0.1
2017-Dec-02 22:13N 43°22' W 002°30'1 4.6
2017-Dec-02 22:00N 43°23' W 002°31'2 4.4
2017-Dec-02 21:30N 43°24' W 002°34'3 5.5
2017-Dec-02 21:00N 43°25' W 002°37'3 6.2
2017-Dec-02 20:30N 43°27' W 002°41'6 5.9
2017-Dec-02 19:30N 43°27' W 002°49'9 4.1
2017-Dec-02 17:25N 43°25' W 003°00'2 4.6
2017-Dec-02 16:57N 43°23' W 003°02'3 5.2
2017-Dec-02 16:27N 43°21' W 003°02'  
2017-Nov-27 17:33N 43°20' W 003°01'0 2.3
2017-Nov-27 17:30N 43°20' W 003°01'0 0.7
2017-Nov-27 17:00N 43°20' W 003°01'0 0.7
2017-Nov-27 16:28N 43°20' W 003°01'0 0.1
2017-Nov-27 16:00N 43°20' W 003°01'0 0.2
2017-Nov-27 15:27N 43°20' W 003°01'0 0.0
2017-Nov-27 14:50N 43°20' W 003°01'0 0.0
2017-Nov-27 13:08N 43°20' W 003°01'0 0.0
2017-Nov-27 12:59N 43°20' W 003°01'1 1.3
2017-Nov-27 12:30N 43°21' W 003°02'1 0.0
2017-Nov-26 17:55N 43°20' W 003°01'2 3.2
2017-Nov-26 17:26N 43°21' W 003°02'2 4.4
2017-Nov-26 17:00N 43°23' W 003°02'2 4.8
2017-Nov-26 16:30N 43°25' W 002°59'1 1.3
2017-Nov-26 16:00N 43°25' W 003°00'2 3.2
2017-Nov-26 15:30N 43°24' W 003°01'2 3.9
2017-Nov-26 14:53N 43°22' W 003°02'2 4.3
2017-Nov-26 14:30N 43°20' W 003°01'0 0.3
2017-Nov-26 13:59N 43°20' W 003°01'0 0.0
2017-Nov-26 13:29N 43°20' W 003°01'0 0.0
2017-Nov-26 12:44N 43°20' W 003°01'1 2.7
2017-Nov-26 12:30N 43°20' W 003°02'2 4.5
2017-Nov-26 12:00N 43°23' W 003°03'1 2.8
2017-Nov-26 11:30N 43°24' W 003°02'0 0.1
2017-Nov-26 11:00N 43°24' W 003°02'2 3.1
2017-Nov-26 10:30N 43°22' W 003°03'3 5.2
2017-Nov-26 10:00N 43°20' W 003°02'0 0.0
2017-Nov-25 18:09N 43°20' W 003°01'0 0.5
2017-Nov-25 17:57N 43°20' W 003°01'2 3.7
2017-Nov-25 17:30N 43°21' W 003°03'2 5.0
2017-Nov-25 17:00N 43°24' W 003°04'2 3.2
2017-Nov-25 16:30N 43°24' W 003°02'2 4.2
2017-Nov-25 16:00N 43°23' W 003°05'1 1.8
2017-Nov-25 15:30N 43°22' W 003°04'1 2.8
2017-Nov-25 15:00N 43°21' W 003°02'1 2.4
2017-Nov-25 14:30N 43°20' W 003°01'0 0.3
2017-Nov-25 13:56N 43°20' W 003°01'0 0.0
2017-Nov-25 13:26N 43°20' W 003°01'0 0.0
2017-Nov-25 12:56N 43°20' W 003°01'2 2.1
2017-Nov-25 12:06N 43°22' W 003°02'0 2.7
2017-Nov-25 12:00N 43°21' W 003°02'1 0.1
2017-Nov-24 10:25N 43°20' W 003°01'0 0.6
2017-Nov-24 10:00N 43°20' W 003°01'  

Dump ship's entire track history